Sharon Center, Ohio
Current Conditions -  °F | °C
As of 1:54 PM on Thursday 18 Dec 2014 (Local Time) from KAKR Reporting Station
Overcast Overcast  
Wind Chill: 22°   Ceiling: 1800
Heat Index: 30°   Visibility: 10mi
Dew Point: 21°   Wind: 9mph
Humidity: 69%   Direction: 270°W
Pressure: 30.15"   Gusts: NA
Location:  41.1°N, 81.74°W
Report Text: KAKR 181854Z AUTO 27008KT 10SM OVC018 M01/M06 A3015 RMK AO2 SLP221 T10111061 $
Loading
Personal Weather Stations






























Interactive Weather Map New forecast layout! Learn more

10-Day Weather Forecast

Advertisements
Track Severe Weather on mobile